Hawkins, Texas
Current Conditions -  °F | °C
As of 8:15 AM on Sunday 25 Jan 2015 (Local Time) from KJXI Reporting Station
Clear Clear  
Wind Chill: 41°   Ceiling: Unl
Heat Index: 46°   Visibility: 10mi
Dew Point: 36°   Wind: 9mph
Humidity: 70%   Direction: 270°W
Pressure: 29.93"   Gusts: NA
Location:  32.59°N, 95.2°W
Report Text: KJXI 251415Z AUTO 27008KT 10SM CLR 08/02 A2993 RMK AO2 T00760024
Loading
Personal Weather Stations






























Interactive Weather Map New forecast layout! Learn more

10-Day Weather Forecast

Advertisements
Track Severe Weather on mobile